Terminal Aerodrome Forecast
Issued by NWS Cleveland, OH

Home | Current Version | Previous Version | Graphics & Text | Print | Product List | Glossary Off
Versions: 1 2 3 4 5 6 7 8 9 10 11 12 13

000
FTUS41 KCLE 300500
TAFERI
TAF
KERI 300529Z 3006/3106 29008KT P6SM VCSH BKN025 OVC050
     FM301100 30006KT P6SM SCT025 OVC050
      TEMPO 3011/3015 BKN025
     FM301500 30005KT P6SM BKN035 OVC200
     FM310200 VRB03KT P6SM OVC100=

USA.gov is the U.S. government's official web portal to all federal, state and local government web resources and services.